EW6772 Weather Reports


Display with metric or nautical units.
time (UTC)temp
F
wind
direction
speed
MPH
gust
MPH
rain 1hr
in
rain 24hr
in
rain mn
in
humidity
%
barometer
mb
20190218024840 12 43 2.0 9.0 0.00 0.00 0.00 78 1018.6
20190218021737 11 313 2.0 8.0 0.00 0.00 0.00 78 1018.0
20190218020155 11 328 1.0 5.0 0.00 0.00 0.00 78 1018.0
20190218014711 11 317 2.0 8.0 0.00 0.00 0.00 79 1017.8
20190218011651 11 312 3.0 6.0 0.00 0.00 0.00 79 1017.5
20190218004644 10 301 3.0 9.0 0.00 0.00 0.00 81 1017.7
20190218001717 11 334 1.0 5.0 0.00 0.00 0.00 80 1018.1
20190217234647 13 334 2.0 5.0 0.00 0.00 0.00 79 1018.3
20190217231708 13 343 1.0 4.0 0.00 0.00 0.00 79 1018.4
20190217230208 13 337 2.0 8.0 0.00 0.00 0.00 78 1018.3
20190217224734 14 316 1.0 5.0 0.00 0.01 0.00 77 1018.4
20190217223134 15 328 3.0 8.0 0.00 0.01 0.00 76 1018.7
20190217220228 16 308 4.0 9.0 0.00 0.01 0.00 75 1019.3
20190217214703 16 324 3.0 6.0 0.00 0.03 0.00 75 1019.3
20190217211708 16 354 7.0 12.0 0.00 0.03 0.00 72 1019.9
20190217204708 17 354 2.0 11.0 0.00 0.07 0.00 71 1020.3
20190217201648 16 14 3.0 9.0 0.00 0.07 0.00 75 1020.4
20190217194828 15 50 3.0 9.0 0.00 0.12 0.00 73 1020.8
20190217193145 15 333 4.0 13.0 0.00 0.12 0.00 73 1021.0
20190217191646 15 359 4.0 11.0 0.00 0.12 0.00 73 1021.1
20190217184735 15 354 4.0 12.0 0.00 0.12 0.00 76 1021.2
20190217181651 15 21 7.0 17.0 0.00 0.12 0.00 76 1021.2
20190217180131 15 343 3.0 12.0 0.00 0.12 0.00 76 1021.6
20190217174625 15 349 6.0 12.0 0.00 0.12 0.00 76 1021.9
20190217171744 15 341 9.0 15.0 0.00 0.12 0.00 77 1022.1
20190217170224 14 333 7.0 13.0 0.00 0.12 0.00 78 1022.3
20190217163208 14 28 3.0 12.0 0.00 0.12 0.00 79 1022.5
20190217161659 14 4 6.0 12.0 0.00 0.12 0.00 80 1022.7
20190217154626 13 326 3.0 10.0 0.00 0.12 0.00 83 1022.6
20190217151806 12 48 2.0 10.0 0.00 0.12 0.00 87 1022.5
20190217144640 4 285 0.0 3.0 0.00 0.12 0.00 90 1022.4
20190217143129 1 311 1.0 5.0 0.00 0.12 0.00 88 1022.7
20190217140317 -1 290 2.0 5.0 0.00 0.12 0.00 87 1023.3
20190217134711 -2 291 2.0 5.0 0.00 0.12 0.00 87 1023.4
20190217131720 -3 272 4.0 8.0 0.00 0.12 0.00 87 1023.4
20190217124659 -3 313 1.0 6.0 0.00 0.12 0.00 89 1023.6
20190217121618 -8 229 0.0 2.0 0.00 0.12 0.00 86 1023.9
20190217120124 -9 229 0.0 2.0 0.00 0.12 0.00 85 1024.1
20190217113253 -8 230 0.0 2.0 0.00 0.12 0.00 84 1024.2
20190217110217 -7 230 0.0 0.0 0.00 0.12 0.00 85 1023.4
20190217104650 -7 229 0.0 1.0 0.00 0.12 0.00 87 1023.1
20190217103139 -7 229 0.0 2.0 0.00 0.12 0.00 86 1023.1
20190217101631 -7 230 0.0 0.0 0.00 0.12 0.00 85 1023.0
20190217094931 -8 230 0.0 0.0 0.00 0.12 0.00 84 1022.7
20190217091820 -7 229 0.0 0.0 0.00 0.12 0.00 86 1022.9
20190217084720 -6 230 0.0 0.0 0.00 0.12 0.00 84 1022.9
20190217081652 -4 229 0.0 0.0 0.00 0.12 0.00 86 1022.7
20190217080140 -3 229 0.0 2.0 0.00 0.12 0.00 88 1022.9
20190217074634 -4 230 0.0 3.0 0.00 0.12 0.00 87 1022.8
20190217071714 -5 229 0.0 1.0 0.00 0.12 0.00 87 1022.7
20190217070131 -5 230 0.0 2.0 0.00 0.12 0.00 87 1022.9
20190217063318 -6 230 0.0 0.0 0.00 0.12 0.00 87 1022.9
20190217060323 -6 229 0.0 0.0 0.00 0.12 0.00 86 1022.7
20190217054624 -5 230 0.0 0.0 0.00 0.12 0.00 86 1022.4
20190217051825 -5 229 0.0 0.0 0.00 0.12 0.00 86 1022.2
20190217050256 -5 230 0.0 0.0 0.00 0.12 0.00 85 1022.2
20190217044638 -4 229 0.0 0.0 0.00 0.12 0.12 86 1022.3
20190217041743 -4 230 0.0 0.0 0.00 0.12 0.12 86 1022.3
20190217040138 -3 229 0.0 0.0 0.00 0.12 0.12 86 1022.3
20190217033227 -2 229 0.0 0.0 0.00 0.12 0.12 86 1021.9
20190217031645 -2 230 0.0 0.0 0.00 0.12 0.12 86 1021.6